sensor_id;sensor_type;location;lat;lon;timestamp;P1;durP1;ratioP1;P2;durP2;ratioP2
49972;SDS011;65693;49.798;10.968;2022-12-07T00:01:27;5.35;;;2.88;;
49972;SDS011;65693;49.798;10.968;2022-12-07T00:03:55;4.03;;;2.50;;
49972;SDS011;65693;49.798;10.968;2022-12-07T00:06:29;3.70;;;2.50;;
49972;SDS011;65693;49.798;10.968;2022-12-07T00:08:57;4.25;;;2.80;;
49972;SDS011;65693;49.798;10.968;2022-12-07T00:11:25;4.15;;;2.58;;
49972;SDS011;65693;49.798;10.968;2022-12-07T00:13:53;4.32;;;2.72;;
49972;SDS011;65693;49.798;10.968;2022-12-07T00:16:23;4.32;;;2.58;;
49972;SDS011;65693;49.798;10.968;2022-12-07T00:18:52;4.68;;;2.72;;
49972;SDS011;65693;49.798;10.968;2022-12-07T00:21:20;5.72;;;3.15;;
49972;SDS011;65693;49.798;10.968;2022-12-07T00:23:49;4.15;;;2.80;;
49972;SDS011;65693;49.798;10.968;2022-12-07T00:26:19;4.20;;;2.58;;
49972;SDS011;65693;49.798;10.968;2022-12-07T00:28:48;3.72;;;2.53;;
49972;SDS011;65693;49.798;10.968;2022-12-07T00:31:17;4.28;;;2.55;;
49972;SDS011;65693;49.798;10.968;2022-12-07T00:33:46;3.80;;;2.50;;
49972;SDS011;65693;49.798;10.968;2022-12-07T00:36:13;4.28;;;2.60;;
49972;SDS011;65693;49.798;10.968;2022-12-07T00:38:42;4.95;;;3.05;;
49972;SDS011;65693;49.798;10.968;2022-12-07T00:41:10;4.65;;;2.80;;
49972;SDS011;65693;49.798;10.968;2022-12-07T00:43:40;4.38;;;2.55;;
49972;SDS011;65693;49.798;10.968;2022-12-07T00:46:07;4.35;;;2.70;;
49972;SDS011;65693;49.798;10.968;2022-12-07T00:48:34;3.88;;;2.53;;
49972;SDS011;65693;49.798;10.968;2022-12-07T00:51:01;4.07;;;2.63;;
49972;SDS011;65693;49.798;10.968;2022-12-07T00:53:29;4.35;;;2.80;;
49972;SDS011;65693;49.798;10.968;2022-12-07T00:55:56;4.28;;;2.70;;
49972;SDS011;65693;49.798;10.968;2022-12-07T00:58:24;4.65;;;2.83;;
49972;SDS011;65693;49.798;10.968;2022-12-07T01:00:52;4.50;;;2.78;;
49972;SDS011;65693;49.798;10.968;2022-12-07T01:03:18;4.25;;;2.60;;
49972;SDS011;65693;49.798;10.968;2022-12-07T01:05:50;4.55;;;2.40;;
49972;SDS011;65693;49.798;10.968;2022-12-07T01:08:17;3.88;;;2.58;;
49972;SDS011;65693;49.798;10.968;2022-12-07T01:10:44;4.68;;;2.78;;
49972;SDS011;65693;49.798;10.968;2022-12-07T01:13:12;4.20;;;2.80;;
49972;SDS011;65693;49.798;10.968;2022-12-07T01:15:40;4.25;;;2.40;;
49972;SDS011;65693;49.798;10.968;2022-12-07T01:18:09;3.75;;;2.47;;
49972;SDS011;65693;49.798;10.968;2022-12-07T01:20:38;3.78;;;2.58;;
49972;SDS011;65693;49.798;10.968;2022-12-07T01:23:06;4.45;;;2.65;;
49972;SDS011;65693;49.798;10.968;2022-12-07T01:25:32;4.43;;;2.50;;
49972;SDS011;65693;49.798;10.968;2022-12-07T01:27:59;4.65;;;3.00;;
49972;SDS011;65693;49.798;10.968;2022-12-07T01:30:26;4.80;;;3.00;;
49972;SDS011;65693;49.798;10.968;2022-12-07T01:32:53;4.47;;;2.88;;
49972;SDS011;65693;49.798;10.968;2022-12-07T01:35:21;3.92;;;2.35;;
49972;SDS011;65693;49.798;10.968;2022-12-07T01:37:47;5.40;;;3.00;;
49972;SDS011;65693;49.798;10.968;2022-12-07T01:40:15;4.15;;;2.45;;
49972;SDS011;65693;49.798;10.968;2022-12-07T01:42:42;4.40;;;2.70;;
49972;SDS011;65693;49.798;10.968;2022-12-07T01:45:25;5.22;;;2.97;;
49972;SDS011;65693;49.798;10.968;2022-12-07T01:48:03;4.22;;;2.70;;
49972;SDS011;65693;49.798;10.968;2022-12-07T01:50:33;4.63;;;2.83;;
49972;SDS011;65693;49.798;10.968;2022-12-07T01:53:01;4.13;;;2.60;;
49972;SDS011;65693;49.798;10.968;2022-12-07T01:55:34;4.30;;;2.70;;
49972;SDS011;65693;49.798;10.968;2022-12-07T01:58:05;4.53;;;2.90;;
49972;SDS011;65693;49.798;10.968;2022-12-07T02:00:32;4.50;;;2.95;;
49972;SDS011;65693;49.798;10.968;2022-12-07T02:03:01;4.45;;;2.83;;
49972;SDS011;65693;49.798;10.968;2022-12-07T02:05:33;4.03;;;2.45;;
49972;SDS011;65693;49.798;10.968;2022-12-07T02:08:01;4.75;;;3.28;;
49972;SDS011;65693;49.798;10.968;2022-12-07T02:10:31;4.40;;;3.15;;
49972;SDS011;65693;49.798;10.968;2022-12-07T02:12:59;4.80;;;2.90;;
49972;SDS011;65693;49.798;10.968;2022-12-07T02:15:31;4.68;;;3.40;;
49972;SDS011;65693;49.798;10.968;2022-12-07T02:18:07;4.60;;;2.97;;
49972;SDS011;65693;49.798;10.968;2022-12-07T02:20:42;5.00;;;3.03;;
49972;SDS011;65693;49.798;10.968;2022-12-07T02:23:36;4.68;;;2.90;;
49972;SDS011;65693;49.798;10.968;2022-12-07T02:29:22;3.78;;;2.50;;
49972;SDS011;65693;49.798;10.968;2022-12-07T02:31:53;4.60;;;2.85;;
49972;SDS011;65693;49.798;10.968;2022-12-07T02:34:30;4.38;;;2.80;;
49972;SDS011;65693;49.798;10.968;2022-12-07T02:37:06;4.93;;;2.95;;
49972;SDS011;65693;49.798;10.968;2022-12-07T02:39:41;4.70;;;2.70;;
49972;SDS011;65693;49.798;10.968;2022-12-07T02:42:13;4.63;;;2.90;;
49972;SDS011;65693;49.798;10.968;2022-12-07T02:44:45;4.50;;;3.03;;
49972;SDS011;65693;49.798;10.968;2022-12-07T02:47:13;4.45;;;2.85;;
49972;SDS011;65693;49.798;10.968;2022-12-07T02:49:43;5.28;;;3.05;;
49972;SDS011;65693;49.798;10.968;2022-12-07T02:52:09;4.45;;;2.85;;
49972;SDS011;65693;49.798;10.968;2022-12-07T02:54:37;5.57;;;3.17;;
49972;SDS011;65693;49.798;10.968;2022-12-07T02:57:07;4.88;;;2.75;;
49972;SDS011;65693;49.798;10.968;2022-12-07T02:59:51;4.90;;;2.95;;
49972;SDS011;65693;49.798;10.968;2022-12-07T03:02:30;4.57;;;2.92;;
49972;SDS011;65693;49.798;10.968;2022-12-07T03:05:08;4.70;;;2.85;;
49972;SDS011;65693;49.798;10.968;2022-12-07T03:07:49;4.63;;;2.97;;
49972;SDS011;65693;49.798;10.968;2022-12-07T03:10:23;4.68;;;2.88;;
49972;SDS011;65693;49.798;10.968;2022-12-07T03:12:57;4.68;;;2.90;;
49972;SDS011;65693;49.798;10.968;2022-12-07T03:15:34;4.70;;;2.90;;
49972;SDS011;65693;49.798;10.968;2022-12-07T03:18:07;5.35;;;3.33;;
49972;SDS011;65693;49.798;10.968;2022-12-07T03:20:36;4.45;;;2.80;;
49972;SDS011;65693;49.798;10.968;2022-12-07T03:23:08;4.95;;;3.05;;
49972;SDS011;65693;49.798;10.968;2022-12-07T03:25:39;5.00;;;2.90;;
49972;SDS011;65693;49.798;10.968;2022-12-07T03:28:10;5.88;;;3.55;;
49972;SDS011;65693;49.798;10.968;2022-12-07T03:30:44;5.25;;;3.22;;
49972;SDS011;65693;49.798;10.968;2022-12-07T03:33:16;4.75;;;3.00;;
49972;SDS011;65693;49.798;10.968;2022-12-07T03:35:48;5.20;;;3.50;;
49972;SDS011;65693;49.798;10.968;2022-12-07T03:38:22;4.38;;;2.70;;
49972;SDS011;65693;49.798;10.968;2022-12-07T03:40:52;4.38;;;2.75;;
49972;SDS011;65693;49.798;10.968;2022-12-07T03:43:27;4.55;;;2.92;;
49972;SDS011;65693;49.798;10.968;2022-12-07T03:45:58;5.13;;;3.25;;
49972;SDS011;65693;49.798;10.968;2022-12-07T03:48:32;4.88;;;3.45;;
49972;SDS011;65693;49.798;10.968;2022-12-07T03:51:05;4.63;;;3.00;;
49972;SDS011;65693;49.798;10.968;2022-12-07T03:53:39;5.38;;;3.08;;
49972;SDS011;65693;49.798;10.968;2022-12-07T03:56:10;5.25;;;3.08;;
49972;SDS011;65693;49.798;10.968;2022-12-07T03:58:38;4.63;;;3.25;;
49972;SDS011;65693;49.798;10.968;2022-12-07T04:01:07;5.03;;;3.47;;
49972;SDS011;65693;49.798;10.968;2022-12-07T04:03:35;5.32;;;3.28;;
49972;SDS011;65693;49.798;10.968;2022-12-07T04:06:03;4.60;;;3.10;;
49972;SDS011;65693;49.798;10.968;2022-12-07T04:08:30;5.80;;;3.58;;
49972;SDS011;65693;49.798;10.968;2022-12-07T04:10:58;5.32;;;3.28;;
49972;SDS011;65693;49.798;10.968;2022-12-07T04:13:24;5.70;;;3.13;;
49972;SDS011;65693;49.798;10.968;2022-12-07T04:15:51;5.00;;;3.20;;
49972;SDS011;65693;49.798;10.968;2022-12-07T04:18:20;4.63;;;3.05;;
49972;SDS011;65693;49.798;10.968;2022-12-07T04:20:48;4.50;;;2.90;;
49972;SDS011;65693;49.798;10.968;2022-12-07T04:23:14;6.07;;;3.30;;
49972;SDS011;65693;49.798;10.968;2022-12-07T04:25:42;5.22;;;3.30;;
49972;SDS011;65693;49.798;10.968;2022-12-07T04:28:08;4.80;;;3.17;;
49972;SDS011;65693;49.798;10.968;2022-12-07T04:30:34;5.55;;;3.75;;
49972;SDS011;65693;49.798;10.968;2022-12-07T04:33:02;5.03;;;3.30;;
49972;SDS011;65693;49.798;10.968;2022-12-07T04:35:31;5.50;;;3.33;;
49972;SDS011;65693;49.798;10.968;2022-12-07T04:37:59;5.50;;;3.60;;
49972;SDS011;65693;49.798;10.968;2022-12-07T04:40:27;5.40;;;3.30;;
49972;SDS011;65693;49.798;10.968;2022-12-07T04:42:53;5.18;;;3.38;;
49972;SDS011;65693;49.798;10.968;2022-12-07T04:45:21;5.25;;;3.15;;
49972;SDS011;65693;49.798;10.968;2022-12-07T04:47:48;5.20;;;3.20;;
49972;SDS011;65693;49.798;10.968;2022-12-07T04:50:15;5.20;;;3.15;;
49972;SDS011;65693;49.798;10.968;2022-12-07T04:52:43;5.68;;;3.78;;
49972;SDS011;65693;49.798;10.968;2022-12-07T04:55:10;5.50;;;3.50;;
49972;SDS011;65693;49.798;10.968;2022-12-07T04:57:37;5.15;;;3.33;;
49972;SDS011;65693;49.798;10.968;2022-12-07T05:00:04;5.65;;;3.50;;
49972;SDS011;65693;49.798;10.968;2022-12-07T05:02:32;5.40;;;3.35;;
49972;SDS011;65693;49.798;10.968;2022-12-07T05:05:00;5.82;;;3.42;;
49972;SDS011;65693;49.798;10.968;2022-12-07T05:07:27;5.00;;;3.10;;
49972;SDS011;65693;49.798;10.968;2022-12-07T05:09:56;4.88;;;3.38;;
49972;SDS011;65693;49.798;10.968;2022-12-07T05:12:25;5.25;;;3.17;;
49972;SDS011;65693;49.798;10.968;2022-12-07T05:14:52;6.35;;;3.67;;
49972;SDS011;65693;49.798;10.968;2022-12-07T05:17:19;5.00;;;3.10;;
49972;SDS011;65693;49.798;10.968;2022-12-07T05:19:47;6.20;;;3.53;;
49972;SDS011;65693;49.798;10.968;2022-12-07T05:22:13;5.28;;;3.63;;
49972;SDS011;65693;49.798;10.968;2022-12-07T05:24:41;5.10;;;3.40;;
49972;SDS011;65693;49.798;10.968;2022-12-07T05:27:10;5.57;;;3.72;;
49972;SDS011;65693;49.798;10.968;2022-12-07T05:29:37;6.78;;;4.13;;
49972;SDS011;65693;49.798;10.968;2022-12-07T05:32:03;4.72;;;3.00;;
49972;SDS011;65693;49.798;10.968;2022-12-07T05:34:31;5.75;;;3.60;;
49972;SDS011;65693;49.798;10.968;2022-12-07T05:36:59;5.90;;;3.60;;
49972;SDS011;65693;49.798;10.968;2022-12-07T05:39:25;7.38;;;4.85;;
49972;SDS011;65693;49.798;10.968;2022-12-07T05:41:53;8.40;;;5.55;;
49972;SDS011;65693;49.798;10.968;2022-12-07T05:44:39;8.10;;;5.22;;
49972;SDS011;65693;49.798;10.968;2022-12-07T05:47:06;7.05;;;4.63;;
49972;SDS011;65693;49.798;10.968;2022-12-07T05:49:33;7.90;;;4.97;;
49972;SDS011;65693;49.798;10.968;2022-12-07T05:52:00;7.57;;;4.60;;
49972;SDS011;65693;49.798;10.968;2022-12-07T05:54:27;6.38;;;4.40;;
49972;SDS011;65693;49.798;10.968;2022-12-07T05:56:55;7.30;;;4.85;;
49972;SDS011;65693;49.798;10.968;2022-12-07T05:59:23;7.93;;;4.75;;
49972;SDS011;65693;49.798;10.968;2022-12-07T06:01:50;6.43;;;4.40;;
49972;SDS011;65693;49.798;10.968;2022-12-07T06:04:17;8.82;;;5.40;;
49972;SDS011;65693;49.798;10.968;2022-12-07T06:06:44;8.32;;;4.50;;
49972;SDS011;65693;49.798;10.968;2022-12-07T06:09:12;8.25;;;5.10;;
49972;SDS011;65693;49.798;10.968;2022-12-07T06:11:38;7.63;;;4.68;;
49972;SDS011;65693;49.798;10.968;2022-12-07T06:14:23;7.68;;;5.35;;
49972;SDS011;65693;49.798;10.968;2022-12-07T06:16:51;7.55;;;4.93;;
49972;SDS011;65693;49.798;10.968;2022-12-07T06:19:18;8.15;;;5.50;;
49972;SDS011;65693;49.798;10.968;2022-12-07T06:21:45;6.72;;;4.47;;
49972;SDS011;65693;49.798;10.968;2022-12-07T06:24:12;8.00;;;5.25;;
49972;SDS011;65693;49.798;10.968;2022-12-07T06:26:40;7.45;;;4.95;;
49972;SDS011;65693;49.798;10.968;2022-12-07T06:29:08;7.40;;;4.95;;
49972;SDS011;65693;49.798;10.968;2022-12-07T06:31:36;6.82;;;4.50;;
49972;SDS011;65693;49.798;10.968;2022-12-07T06:34:07;7.47;;;4.82;;
49972;SDS011;65693;49.798;10.968;2022-12-07T06:36:36;7.22;;;4.25;;
49972;SDS011;65693;49.798;10.968;2022-12-07T06:39:02;7.50;;;4.80;;
49972;SDS011;65693;49.798;10.968;2022-12-07T06:41:31;7.38;;;4.75;;
49972;SDS011;65693;49.798;10.968;2022-12-07T06:43:58;7.32;;;4.60;;
49972;SDS011;65693;49.798;10.968;2022-12-07T06:46:25;7.70;;;4.55;;
49972;SDS011;65693;49.798;10.968;2022-12-07T06:48:53;7.13;;;4.55;;
49972;SDS011;65693;49.798;10.968;2022-12-07T06:51:21;6.95;;;5.00;;
49972;SDS011;65693;49.798;10.968;2022-12-07T06:53:50;6.68;;;4.65;;
49972;SDS011;65693;49.798;10.968;2022-12-07T06:56:17;8.32;;;4.82;;
49972;SDS011;65693;49.798;10.968;2022-12-07T06:58:44;7.07;;;4.53;;
49972;SDS011;65693;49.798;10.968;2022-12-07T07:01:11;8.35;;;5.25;;
49972;SDS011;65693;49.798;10.968;2022-12-07T07:03:39;6.97;;;4.43;;
49972;SDS011;65693;49.798;10.968;2022-12-07T07:06:07;8.13;;;5.18;;
49972;SDS011;65693;49.798;10.968;2022-12-07T07:08:35;7.28;;;4.25;;
49972;SDS011;65693;49.798;10.968;2022-12-07T07:11:04;7.28;;;4.60;;
49972;SDS011;65693;49.798;10.968;2022-12-07T07:13:31;6.65;;;4.88;;
49972;SDS011;65693;49.798;10.968;2022-12-07T07:15:58;7.43;;;4.75;;
49972;SDS011;65693;49.798;10.968;2022-12-07T07:18:25;8.75;;;5.20;;
49972;SDS011;65693;49.798;10.968;2022-12-07T07:20:52;10.07;;;6.70;;
49972;SDS011;65693;49.798;10.968;2022-12-07T07:23:19;9.27;;;5.60;;
49972;SDS011;65693;49.798;10.968;2022-12-07T07:25:47;9.23;;;5.57;;
49972;SDS011;65693;49.798;10.968;2022-12-07T07:28:16;9.40;;;6.25;;
49972;SDS011;65693;49.798;10.968;2022-12-07T07:30:43;8.75;;;5.32;;
49972;SDS011;65693;49.798;10.968;2022-12-07T07:33:09;9.50;;;5.95;;
49972;SDS011;65693;49.798;10.968;2022-12-07T07:35:37;8.98;;;5.40;;
49972;SDS011;65693;49.798;10.968;2022-12-07T07:38:04;8.23;;;5.38;;
49972;SDS011;65693;49.798;10.968;2022-12-07T07:40:33;11.65;;;5.10;;
49972;SDS011;65693;49.798;10.968;2022-12-07T07:43:01;8.25;;;4.95;;
49972;SDS011;65693;49.798;10.968;2022-12-07T07:45:28;8.50;;;5.07;;
49972;SDS011;65693;49.798;10.968;2022-12-07T07:47:56;7.93;;;5.32;;
49972;SDS011;65693;49.798;10.968;2022-12-07T07:50:24;8.50;;;5.25;;
49972;SDS011;65693;49.798;10.968;2022-12-07T07:52:51;7.85;;;5.25;;
49972;SDS011;65693;49.798;10.968;2022-12-07T07:55:18;7.88;;;5.50;;
49972;SDS011;65693;49.798;10.968;2022-12-07T07:57:44;9.25;;;5.20;;
49972;SDS011;65693;49.798;10.968;2022-12-07T08:00:15;8.18;;;4.55;;
49972;SDS011;65693;49.798;10.968;2022-12-07T08:02:43;9.50;;;5.88;;
49972;SDS011;65693;49.798;10.968;2022-12-07T08:05:11;8.15;;;5.38;;
49972;SDS011;65693;49.798;10.968;2022-12-07T08:07:39;8.93;;;5.53;;
49972;SDS011;65693;49.798;10.968;2022-12-07T08:10:07;7.60;;;5.18;;
49972;SDS011;65693;49.798;10.968;2022-12-07T08:12:38;8.27;;;5.22;;
49972;SDS011;65693;49.798;10.968;2022-12-07T08:15:29;7.97;;;5.25;;
49972;SDS011;65693;49.798;10.968;2022-12-07T08:17:56;8.52;;;5.07;;
49972;SDS011;65693;49.798;10.968;2022-12-07T08:20:23;7.75;;;4.88;;
49972;SDS011;65693;49.798;10.968;2022-12-07T08:22:51;7.30;;;4.88;;
49972;SDS011;65693;49.798;10.968;2022-12-07T08:25:17;8.23;;;4.82;;
49972;SDS011;65693;49.798;10.968;2022-12-07T08:27:45;8.27;;;5.40;;
49972;SDS011;65693;49.798;10.968;2022-12-07T08:30:14;8.30;;;5.25;;
49972;SDS011;65693;49.798;10.968;2022-12-07T08:32:42;8.38;;;4.97;;
49972;SDS011;65693;49.798;10.968;2022-12-07T08:35:10;7.25;;;4.82;;
49972;SDS011;65693;49.798;10.968;2022-12-07T08:37:38;8.20;;;5.03;;
49972;SDS011;65693;49.798;10.968;2022-12-07T08:40:07;7.35;;;5.30;;
49972;SDS011;65693;49.798;10.968;2022-12-07T08:42:40;7.82;;;5.28;;
49972;SDS011;65693;49.798;10.968;2022-12-07T08:45:10;7.32;;;4.82;;
49972;SDS011;65693;49.798;10.968;2022-12-07T08:47:38;7.35;;;4.82;;
49972;SDS011;65693;49.798;10.968;2022-12-07T08:50:10;6.93;;;4.53;;
49972;SDS011;65693;49.798;10.968;2022-12-07T08:52:40;7.38;;;5.07;;
49972;SDS011;65693;49.798;10.968;2022-12-07T08:55:08;7.47;;;4.80;;
49972;SDS011;65693;49.798;10.968;2022-12-07T08:57:37;7.35;;;4.43;;
49972;SDS011;65693;49.798;10.968;2022-12-07T09:00:06;7.30;;;4.78;;
49972;SDS011;65693;49.798;10.968;2022-12-07T09:02:33;7.53;;;4.80;;
49972;SDS011;65693;49.798;10.968;2022-12-07T09:05:01;6.85;;;4.47;;
49972;SDS011;65693;49.798;10.968;2022-12-07T09:07:30;7.40;;;4.60;;
49972;SDS011;65693;49.798;10.968;2022-12-07T09:09:58;7.35;;;4.65;;
49972;SDS011;65693;49.798;10.968;2022-12-07T09:12:25;7.47;;;4.75;;
49972;SDS011;65693;49.798;10.968;2022-12-07T09:14:51;7.18;;;5.15;;
49972;SDS011;65693;49.798;10.968;2022-12-07T09:17:19;8.55;;;5.10;;
49972;SDS011;65693;49.798;10.968;2022-12-07T09:19:47;9.07;;;4.97;;
49972;SDS011;65693;49.798;10.968;2022-12-07T09:22:15;6.70;;;4.50;;
49972;SDS011;65693;49.798;10.968;2022-12-07T09:24:45;8.20;;;5.05;;
49972;SDS011;65693;49.798;10.968;2022-12-07T09:27:11;7.63;;;4.93;;
49972;SDS011;65693;49.798;10.968;2022-12-07T09:29:40;6.95;;;4.45;;
49972;SDS011;65693;49.798;10.968;2022-12-07T09:32:08;7.43;;;4.50;;
49972;SDS011;65693;49.798;10.968;2022-12-07T09:34:35;6.35;;;4.53;;
49972;SDS011;65693;49.798;10.968;2022-12-07T09:37:03;8.07;;;4.75;;
49972;SDS011;65693;49.798;10.968;2022-12-07T09:39:31;7.88;;;4.60;;
49972;SDS011;65693;49.798;10.968;2022-12-07T09:42:02;6.88;;;4.78;;
49972;SDS011;65693;49.798;10.968;2022-12-07T09:44:30;7.93;;;5.38;;
49972;SDS011;65693;49.798;10.968;2022-12-07T09:46:59;7.78;;;5.63;;
49972;SDS011;65693;49.798;10.968;2022-12-07T09:49:27;7.75;;;4.93;;
49972;SDS011;65693;49.798;10.968;2022-12-07T09:52:02;7.15;;;4.75;;
49972;SDS011;65693;49.798;10.968;2022-12-07T09:54:44;8.15;;;4.57;;
49972;SDS011;65693;49.798;10.968;2022-12-07T09:57:16;6.72;;;4.70;;
49972;SDS011;65693;49.798;10.968;2022-12-07T09:59:43;7.22;;;4.55;;
49972;SDS011;65693;49.798;10.968;2022-12-07T10:02:22;6.97;;;4.35;;
49972;SDS011;65693;49.798;10.968;2022-12-07T10:04:53;7.30;;;4.68;;
49972;SDS011;65693;49.798;10.968;2022-12-07T10:07:21;7.90;;;4.65;;
49972;SDS011;65693;49.798;10.968;2022-12-07T10:09:49;6.78;;;4.60;;
49972;SDS011;65693;49.798;10.968;2022-12-07T10:12:17;6.68;;;4.43;;
49972;SDS011;65693;49.798;10.968;2022-12-07T10:14:53;7.70;;;4.72;;
49972;SDS011;65693;49.798;10.968;2022-12-07T10:17:27;7.03;;;4.53;;
49972;SDS011;65693;49.798;10.968;2022-12-07T10:20:08;6.50;;;4.38;;
49972;SDS011;65693;49.798;10.968;2022-12-07T10:22:48;7.97;;;4.95;;
49972;SDS011;65693;49.798;10.968;2022-12-07T10:25:21;6.30;;;3.97;;
49972;SDS011;65693;49.798;10.968;2022-12-07T10:27:58;6.90;;;4.25;;
49972;SDS011;65693;49.798;10.968;2022-12-07T10:30:27;8.52;;;5.03;;
49972;SDS011;65693;49.798;10.968;2022-12-07T10:32:54;7.10;;;4.65;;
49972;SDS011;65693;49.798;10.968;2022-12-07T10:35:22;7.47;;;4.82;;
49972;SDS011;65693;49.798;10.968;2022-12-07T10:37:51;6.47;;;4.60;;
49972;SDS011;65693;49.798;10.968;2022-12-07T10:40:24;7.28;;;4.43;;
49972;SDS011;65693;49.798;10.968;2022-12-07T10:46:01;7.28;;;4.80;;
49972;SDS011;65693;49.798;10.968;2022-12-07T10:48:44;6.25;;;4.07;;
49972;SDS011;65693;49.798;10.968;2022-12-07T10:51:19;7.10;;;4.55;;
49972;SDS011;65693;49.798;10.968;2022-12-07T10:53:57;7.10;;;4.82;;
49972;SDS011;65693;49.798;10.968;2022-12-07T10:56:45;7.70;;;4.40;;
49972;SDS011;65693;49.798;10.968;2022-12-07T10:59:26;7.50;;;4.88;;
49972;SDS011;65693;49.798;10.968;2022-12-07T11:02:10;7.03;;;4.68;;
49972;SDS011;65693;49.798;10.968;2022-12-07T11:04:53;6.63;;;4.32;;
49972;SDS011;65693;49.798;10.968;2022-12-07T11:07:27;5.95;;;3.75;;
49972;SDS011;65693;49.798;10.968;2022-12-07T11:10:08;6.88;;;4.35;;
49972;SDS011;65693;49.798;10.968;2022-12-07T11:12:43;8.82;;;4.43;;
49972;SDS011;65693;49.798;10.968;2022-12-07T11:15:24;7.63;;;4.70;;
49972;SDS011;65693;49.798;10.968;2022-12-07T11:17:56;6.70;;;4.03;;
49972;SDS011;65693;49.798;10.968;2022-12-07T11:20:36;6.88;;;4.38;;
49972;SDS011;65693;49.798;10.968;2022-12-07T11:26:07;6.13;;;4.15;;
49972;SDS011;65693;49.798;10.968;2022-12-07T11:28:47;6.90;;;4.45;;
49972;SDS011;65693;49.798;10.968;2022-12-07T11:31:33;7.10;;;4.88;;
49972;SDS011;65693;49.798;10.968;2022-12-07T11:34:05;6.63;;;4.13;;
49972;SDS011;65693;49.798;10.968;2022-12-07T11:36:40;6.30;;;4.53;;
49972;SDS011;65693;49.798;10.968;2022-12-07T11:39:11;6.55;;;3.85;;
49972;SDS011;65693;49.798;10.968;2022-12-07T11:41:49;7.70;;;4.85;;
49972;SDS011;65693;49.798;10.968;2022-12-07T11:44:24;6.95;;;4.18;;
49972;SDS011;65693;49.798;10.968;2022-12-07T11:47:02;6.68;;;4.30;;
49972;SDS011;65693;49.798;10.968;2022-12-07T11:49:38;6.40;;;4.20;;
49972;SDS011;65693;49.798;10.968;2022-12-07T11:52:13;6.15;;;4.05;;
49972;SDS011;65693;49.798;10.968;2022-12-07T11:54:46;6.18;;;4.03;;
49972;SDS011;65693;49.798;10.968;2022-12-07T11:57:16;7.00;;;4.45;;
49972;SDS011;65693;49.798;10.968;2022-12-07T11:59:50;6.55;;;4.20;;
49972;SDS011;65693;49.798;10.968;2022-12-07T12:02:26;6.60;;;4.30;;
49972;SDS011;65693;49.798;10.968;2022-12-07T12:05:05;7.32;;;4.70;;
49972;SDS011;65693;49.798;10.968;2022-12-07T12:07:40;6.53;;;4.20;;
49972;SDS011;65693;49.798;10.968;2022-12-07T12:10:15;6.40;;;3.63;;
49972;SDS011;65693;49.798;10.968;2022-12-07T12:12:52;7.53;;;4.43;;
49972;SDS011;65693;49.798;10.968;2022-12-07T12:15:41;6.50;;;3.92;;
49972;SDS011;65693;49.798;10.968;2022-12-07T12:21:19;5.55;;;3.47;;
49972;SDS011;65693;49.798;10.968;2022-12-07T12:23:54;6.03;;;4.07;;
49972;SDS011;65693;49.798;10.968;2022-12-07T12:26:26;6.68;;;4.30;;
49972;SDS011;65693;49.798;10.968;2022-12-07T12:28:56;5.63;;;3.80;;
49972;SDS011;65693;49.798;10.968;2022-12-07T12:31:35;6.28;;;4.10;;
49972;SDS011;65693;49.798;10.968;2022-12-07T12:36:57;6.15;;;4.13;;
49972;SDS011;65693;49.798;10.968;2022-12-07T12:39:24;6.50;;;4.40;;
49972;SDS011;65693;49.798;10.968;2022-12-07T12:41:52;6.70;;;4.00;;
49972;SDS011;65693;49.798;10.968;2022-12-07T12:44:40;5.93;;;3.95;;
49972;SDS011;65693;49.798;10.968;2022-12-07T12:50:32;5.50;;;3.60;;
49972;SDS011;65693;49.798;10.968;2022-12-07T12:53:04;5.75;;;3.97;;
49972;SDS011;65693;49.798;10.968;2022-12-07T12:55:46;6.07;;;3.88;;
49972;SDS011;65693;49.798;10.968;2022-12-07T12:58:39;6.10;;;3.72;;
49972;SDS011;65693;49.798;10.968;2022-12-07T13:04:12;5.70;;;3.92;;
49972;SDS011;65693;49.798;10.968;2022-12-07T13:06:46;5.82;;;3.67;;
49972;SDS011;65693;49.798;10.968;2022-12-07T13:09:17;6.93;;;4.22;;
49972;SDS011;65693;49.798;10.968;2022-12-07T13:11:47;5.97;;;3.45;;
49972;SDS011;65693;49.798;10.968;2022-12-07T13:14:39;6.03;;;3.90;;
49972;SDS011;65693;49.798;10.968;2022-12-07T13:23:15;6.50;;;3.70;;
49972;SDS011;65693;49.798;10.968;2022-12-07T13:28:40;8.15;;;4.20;;
49972;SDS011;65693;49.798;10.968;2022-12-07T13:36:55;6.22;;;4.35;;
49972;SDS011;65693;49.798;10.968;2022-12-07T13:39:25;5.32;;;3.60;;
49972;SDS011;65693;49.798;10.968;2022-12-07T13:41:54;5.78;;;3.42;;
49972;SDS011;65693;49.798;10.968;2022-12-07T13:44:22;6.45;;;3.83;;
49972;SDS011;65693;49.798;10.968;2022-12-07T13:46:52;5.03;;;3.28;;
49972;SDS011;65693;49.798;10.968;2022-12-07T13:49:26;5.22;;;3.20;;
49972;SDS011;65693;49.798;10.968;2022-12-07T13:51:54;6.50;;;3.72;;
49972;SDS011;65693;49.798;10.968;2022-12-07T13:54:44;5.93;;;3.95;;
49972;SDS011;65693;49.798;10.968;2022-12-07T13:57:13;4.85;;;3.42;;
49972;SDS011;65693;49.798;10.968;2022-12-07T13:59:41;6.03;;;3.63;;
49972;SDS011;65693;49.798;10.968;2022-12-07T14:02:17;5.65;;;3.55;;
49972;SDS011;65693;49.798;10.968;2022-12-07T14:04:46;5.75;;;3.50;;
49972;SDS011;65693;49.798;10.968;2022-12-07T14:07:23;7.22;;;4.50;;
49972;SDS011;65693;49.798;10.968;2022-12-07T14:12:52;5.10;;;3.42;;
49972;SDS011;65693;49.798;10.968;2022-12-07T14:15:20;5.68;;;3.28;;
49972;SDS011;65693;49.798;10.968;2022-12-07T14:17:51;5.13;;;3.65;;
49972;SDS011;65693;49.798;10.968;2022-12-07T14:20:29;5.18;;;3.33;;
49972;SDS011;65693;49.798;10.968;2022-12-07T14:22:57;6.22;;;3.45;;
49972;SDS011;65693;49.798;10.968;2022-12-07T14:25:25;7.35;;;4.28;;
49972;SDS011;65693;49.798;10.968;2022-12-07T14:27:54;6.50;;;3.42;;
49972;SDS011;65693;49.798;10.968;2022-12-07T14:30:24;5.47;;;3.40;;
49972;SDS011;65693;49.798;10.968;2022-12-07T14:32:53;6.50;;;3.60;;
49972;SDS011;65693;49.798;10.968;2022-12-07T14:35:24;5.32;;;3.33;;
49972;SDS011;65693;49.798;10.968;2022-12-07T14:37:52;5.82;;;3.45;;
49972;SDS011;65693;49.798;10.968;2022-12-07T14:40:20;6.45;;;3.85;;
49972;SDS011;65693;49.798;10.968;2022-12-07T14:42:51;5.20;;;3.38;;
49972;SDS011;65693;49.798;10.968;2022-12-07T14:45:22;5.75;;;3.63;;
49972;SDS011;65693;49.798;10.968;2022-12-07T14:47:50;5.30;;;3.30;;
49972;SDS011;65693;49.798;10.968;2022-12-07T14:50:19;6.28;;;3.50;;
49972;SDS011;65693;49.798;10.968;2022-12-07T14:52:48;5.82;;;3.60;;
49972;SDS011;65693;49.798;10.968;2022-12-07T14:55:20;5.28;;;3.50;;
49972;SDS011;65693;49.798;10.968;2022-12-07T14:57:51;6.30;;;3.70;;
49972;SDS011;65693;49.798;10.968;2022-12-07T15:00:19;5.53;;;3.33;;
49972;SDS011;65693;49.798;10.968;2022-12-07T15:02:47;5.45;;;3.53;;
49972;SDS011;65693;49.798;10.968;2022-12-07T15:05:15;5.85;;;3.30;;
49972;SDS011;65693;49.798;10.968;2022-12-07T15:07:43;5.20;;;3.10;;
49972;SDS011;65693;49.798;10.968;2022-12-07T15:10:13;5.47;;;3.58;;
49972;SDS011;65693;49.798;10.968;2022-12-07T15:12:43;5.65;;;3.45;;
49972;SDS011;65693;49.798;10.968;2022-12-07T15:15:12;5.15;;;3.38;;
49972;SDS011;65693;49.798;10.968;2022-12-07T15:17:40;5.18;;;3.38;;
49972;SDS011;65693;49.798;10.968;2022-12-07T15:20:08;4.53;;;3.17;;
49972;SDS011;65693;49.798;10.968;2022-12-07T15:22:38;6.25;;;3.30;;
49972;SDS011;65693;49.798;10.968;2022-12-07T15:25:06;5.40;;;3.20;;
49972;SDS011;65693;49.798;10.968;2022-12-07T15:27:33;5.32;;;3.60;;
49972;SDS011;65693;49.798;10.968;2022-12-07T15:30:01;5.70;;;3.33;;
49972;SDS011;65693;49.798;10.968;2022-12-07T15:32:29;5.25;;;3.00;;